Time;durP1;ratioP1;P1;durP2;ratioP2;P2;SDS_P1;SDS_P2;PMS_P1;PMS_P2;Temp;Humidity;BMP_temperature;BMP_pressure;BME280_temperature;BME280_humidity;BME280_pressure;Samples;Min_cycle;Max_cycle;Signal;HPM_P1;HPM_P2
2022/12/11 00:02:01;;;;;;;25.47;19.00;;;;;;;-1.68;100.00;96060.00;5075990;28;20251;-78
2022/12/11 00:04:27;;;;;;;28.07;20.03;;;;;;;-1.58;100.00;96057.22;5076477;28;20261;-78
2022/12/11 00:06:52;;;;;;;25.80;20.73;;;;;;;-1.65;100.00;96053.72;5058737;28;20315;-79
2022/12/11 00:09:21;;;;;;;26.10;19.77;;;;;;;-1.63;100.00;96062.84;5075148;28;20185;-79
2022/12/11 00:11:47;;;;;;;24.23;18.77;;;;;;;-1.37;100.00;96054.81;5061948;28;20222;-80
2022/12/11 00:14:13;;;;;;;26.97;19.17;;;;;;;-1.54;100.00;96058.47;5046595;28;20194;-79
2022/12/11 00:16:40;;;;;;;23.07;18.67;;;;;;;-1.55;100.00;96057.66;5057209;28;20189;-79
2022/12/11 00:19:05;;;;;;;25.67;18.10;;;;;;;-1.59;100.00;96058.16;5059961;28;20264;-80
2022/12/11 00:21:31;;;;;;;22.80;17.23;;;;;;;-1.72;100.00;96051.81;5067260;28;20610;-80
2022/12/11 00:24:01;;;;;;;24.37;18.00;;;;;;;-1.80;100.00;96048.50;5075725;28;20185;-80
2022/12/11 00:26:26;;;;;;;24.33;18.03;;;;;;;-1.75;100.00;96053.94;5062250;28;20273;-79
2022/12/11 00:28:55;;;;;;;23.33;17.73;;;;;;;-1.85;100.00;96053.34;5055808;28;20273;-80
2022/12/11 00:31:22;;;;;;;23.07;17.27;;;;;;;-1.84;100.00;96045.44;5068973;28;20272;-79
2022/12/11 00:33:50;;;;;;;25.00;19.00;;;;;;;-1.79;100.00;96048.34;5075440;28;20243;-80
2022/12/11 00:36:19;;;;;;;23.73;18.87;;;;;;;-1.90;100.00;96051.28;5075433;28;20213;-81
2022/12/11 00:38:44;;;;;;;26.83;19.87;;;;;;;-1.79;100.00;96042.41;5059445;28;20201;-81
2022/12/11 00:41:10;;;;;;;26.87;20.60;;;;;;;-1.73;100.00;96046.88;5059927;28;20185;-80
2022/12/11 00:43:36;;;;;;;30.47;21.10;;;;;;;-1.84;100.00;96042.09;5074856;28;20521;-80
2022/12/11 00:46:02;;;;;;;30.23;22.17;;;;;;;-1.64;100.00;96040.69;5065200;28;20205;-81
2022/12/11 00:48:28;;;;;;;30.43;22.53;;;;;;;-1.74;100.00;96040.13;5068080;28;20673;-79
2022/12/11 00:50:53;;;;;;;28.33;21.23;;;;;;;-1.64;100.00;96047.59;5067094;28;20222;-81
2022/12/11 00:53:19;;;;;;;26.93;21.17;;;;;;;-1.70;100.00;96052.44;5036576;28;20251;-80
2022/12/11 00:55:44;;;;;;;29.33;22.13;;;;;;;-1.50;100.00;96044.28;5037170;28;20630;-80
2022/12/11 00:58:14;;;;;;;27.60;21.23;;;;;;;-1.43;100.00;96045.22;5054964;28;20182;-80
2022/12/11 01:00:40;;;;;;;27.37;22.10;;;;;;;-1.54;100.00;96046.41;5065812;28;20264;-80
2022/12/11 01:03:06;;;;;;;27.73;22.17;;;;;;;-1.54;100.00;96049.00;5074314;28;20762;-80
2022/12/11 01:05:31;;;;;;;27.63;20.60;;;;;;;-1.63;100.00;96051.78;5055945;28;20262;-80
2022/12/11 01:07:57;;;;;;;24.70;19.77;;;;;;;-1.51;100.00;96061.50;5069161;28;20221;-80
2022/12/11 01:10:22;;;;;;;26.17;20.60;;;;;;;-1.48;100.00;96061.16;5054398;28;20185;-80
2022/12/11 01:12:51;;;;;;;24.43;18.53;;;;;;;-1.51;100.00;96074.34;5053338;28;20214;-80
2022/12/11 01:15:18;;;;;;;25.73;18.07;;;;;;;-1.71;100.00;96070.59;5054817;28;20566;-79
2022/12/11 01:17:43;;;;;;;24.83;18.80;;;;;;;-1.72;100.00;96071.56;5069379;28;20186;-80
2022/12/11 01:20:09;;;;;;;25.33;19.87;;;;;;;-1.86;100.00;96075.66;5060368;28;20187;-79
2022/12/11 01:22:34;;;;;;;24.37;19.53;;;;;;;-1.52;100.00;96075.31;5072610;28;20666;-80
2022/12/11 01:25:00;;;;;;;26.33;20.53;;;;;;;-1.59;100.00;96076.97;5059574;28;20642;-79
2022/12/11 01:27:25;;;;;;;28.63;19.83;;;;;;;-1.45;100.00;96089.06;5053012;28;20218;-80
2022/12/11 01:29:50;;;;;;;29.47;20.87;;;;;;;-1.67;100.00;96092.41;5072992;28;20188;-79
2022/12/11 01:32:16;;;;;;;26.33;20.00;;;;;;;-1.34;100.00;96098.19;5066841;28;20189;-79
2022/12/11 01:34:41;;;;;;;30.20;21.53;;;;;;;-1.40;100.00;96091.97;5052984;28;20181;-79
2022/12/11 01:37:06;;;;;;;26.97;19.97;;;;;;;-1.44;100.00;96095.81;5044535;28;20188;-80
2022/12/11 01:39:32;;;;;;;25.97;19.70;;;;;;;-1.59;100.00;96087.22;5054832;28;20186;-80
2022/12/11 01:41:59;;;;;;;26.00;18.83;;;;;;;-1.35;100.00;96094.00;5068522;28;20205;-80
2022/12/11 01:44:24;;;;;;;25.00;19.57;;;;;;;-1.37;100.00;96091.59;5072931;28;20538;-80
2022/12/11 01:46:49;;;;;;;26.03;19.87;;;;;;;-1.35;100.00;96094.81;5071976;28;20221;-80
2022/12/11 01:49:17;;;;;;;24.13;18.23;;;;;;;-1.43;100.00;96096.63;5042669;28;20178;-80
2022/12/11 01:52:04;;;;;;;26.67;19.23;;;;;;;-1.34;100.00;96093.81;5052627;28;20596;-80
2022/12/11 01:54:30;;;;;;;27.30;20.13;;;;;;;-1.35;100.00;96094.00;5057995;28;20180;-80
2022/12/11 01:57:00;;;;;;;25.20;19.70;;;;;;;-1.27;100.00;96101.66;5071716;28;20185;-80
2022/12/11 01:59:28;;;;;;;25.57;20.40;;;;;;;-1.30;100.00;96099.44;5054776;28;20536;-80
2022/12/11 02:01:53;;;;;;;23.83;19.27;;;;;;;-1.41;100.00;96098.06;5053405;28;20205;-80
2022/12/11 02:04:20;;;;;;;24.60;18.80;;;;;;;-1.47;100.00;96095.38;5053630;28;20654;-81
2022/12/11 02:06:47;;;;;;;23.47;18.77;;;;;;;-1.17;100.00;96091.19;5056689;28;20197;-80
2022/12/11 02:09:16;;;;;;;22.70;17.77;;;;;;;-1.25;100.00;96104.88;5071363;28;20184;-79
2022/12/11 02:12:10;;;;;;;22.43;17.10;;;;;;;-1.31;100.00;96108.94;5076276;28;20189;-80
2022/12/11 02:14:42;;;;;;;24.43;19.10;;;;;;;-1.35;100.00;96101.72;5056320;28;20175;-80
2022/12/11 02:17:18;;;;;;;22.27;18.17;;;;;;;-1.36;100.00;96107.84;5056653;28;20183;-80
2022/12/11 02:20:11;;;;;;;21.10;16.80;;;;;;;-1.40;100.00;96102.25;5056517;28;20177;-80
2022/12/11 02:22:45;;;;;;;22.50;17.80;;;;;;;-1.18;100.00;96099.84;5051295;28;20217;-80
2022/12/11 02:25:24;;;;;;;21.73;18.07;;;;;;;-1.36;100.00;96100.13;5074166;28;20195;-80
2022/12/11 02:28:03;;;;;;;22.37;17.37;;;;;;;-1.38;100.00;96108.00;5075880;28;20185;-80
2022/12/11 02:30:31;;;;;;;17.70;15.27;;;;;;;-1.21;100.00;96097.63;5076219;28;20262;-79
2022/12/11 02:32:58;;;;;;;20.10;15.83;;;;;;;-1.22;100.00;96096.00;5069246;28;20213;-80
2022/12/11 02:35:34;;;;;;;19.30;15.63;;;;;;;-1.27;100.00;96086.25;5038286;28;20638;-80
2022/12/11 02:38:04;;;;;;;20.73;16.27;;;;;;;-1.34;100.00;96085.34;5073162;28;20173;-80
2022/12/11 02:40:33;;;;;;;23.33;18.33;;;;;;;-1.38;100.00;96082.28;5073114;28;20193;-80
2022/12/11 02:43:02;;;;;;;22.47;17.83;;;;;;;-1.34;100.00;96087.91;5075825;28;20216;-80
2022/12/11 02:45:29;;;;;;;19.27;16.43;;;;;;;-1.39;100.00;96090.16;5075016;28;20243;-80
2022/12/11 02:47:57;;;;;;;19.70;16.93;;;;;;;-1.37;100.00;96094.19;5071483;28;20221;-81
2022/12/11 02:50:25;;;;;;;22.63;17.67;;;;;;;-1.35;100.00;96089.69;5037862;28;20273;-80
2022/12/11 02:52:54;;;;;;;22.87;17.53;;;;;;;-1.41;100.00;96092.13;5066247;28;20529;-80
2022/12/11 02:55:21;;;;;;;23.33;17.80;;;;;;;-1.34;100.00;96093.81;5074595;28;20173;-80
2022/12/11 02:57:52;;;;;;;21.53;17.30;;;;;;;-1.40;100.00;96094.53;5057879;28;20209;-80
2022/12/11 03:00:18;;;;;;;23.70;18.03;;;;;;;-1.26;100.00;96096.38;5075511;28;20200;-81
2022/12/11 03:02:44;;;;;;;23.90;18.07;;;;;;;-1.19;100.00;96087.97;5073547;28;20204;-81
2022/12/11 03:05:12;;;;;;;21.10;17.27;;;;;;;-1.38;100.00;96089.19;5057240;28;20213;-80
2022/12/11 03:07:40;;;;;;;22.83;17.63;;;;;;;-1.29;100.00;96077.91;5055813;28;20200;-81
2022/12/11 03:10:08;;;;;;;22.30;18.40;;;;;;;-1.08;100.00;96079.88;5055612;28;20186;-80
2022/12/11 03:12:37;;;;;;;21.80;17.33;;;;;;;-1.35;100.00;96081.16;5068663;28;20196;-80
2022/12/11 03:15:07;;;;;;;23.83;17.93;;;;;;;-1.40;100.00;96088.59;5072524;28;20189;-81
2022/12/11 03:17:42;;;;;;;19.30;16.10;;;;;;;-1.32;100.00;96079.03;5036648;28;20701;-81
2022/12/11 03:20:15;;;;;;;18.90;14.93;;;;;;;-1.13;100.00;96082.16;5021940;28;20535;-80
2022/12/11 03:23:22;;;;;;;18.63;13.83;;;;;;;-1.08;100.00;96085.00;5055574;28;20194;-80
2022/12/11 03:26:11;;;;;;;17.07;13.53;;;;;;;-1.34;100.00;96095.63;5043949;28;20185;-80
2022/12/11 03:28:44;;;;;;;16.40;14.57;;;;;;;-1.03;100.00;96090.44;5075543;28;20208;-80
2022/12/11 03:31:15;;;;;;;15.60;13.47;;;;;;;-1.18;100.00;96082.66;5076057;28;20498;-81
2022/12/11 03:33:44;;;;;;;18.70;15.80;;;;;;;-1.31;100.00;96088.38;5059750;28;20650;-81
2022/12/11 03:36:13;;;;;;;17.37;15.30;;;;;;;-1.37;100.00;96098.50;5064275;28;20240;-80
2022/12/11 03:38:55;;;;;;;18.27;13.93;;;;;;;-1.35;100.00;96094.81;5058464;28;20283;-79
2022/12/11 03:41:24;;;;;;;19.17;15.70;;;;;;;-1.34;100.00;96093.81;5074172;28;20219;-79
2022/12/11 03:43:53;;;;;;;18.50;14.47;;;;;;;-1.31;100.00;96090.94;5073503;28;20185;-80
2022/12/11 03:46:21;;;;;;;17.87;15.17;;;;;;;-1.31;100.00;96095.28;5059727;28;20517;-81
2022/12/11 03:48:48;;;;;;;19.00;15.00;;;;;;;-1.38;100.00;96094.34;5069076;28;20291;-80
2022/12/11 03:51:16;;;;;;;18.77;16.37;;;;;;;-1.24;100.00;96087.69;5054999;28;20178;-81
2022/12/11 03:53:42;;;;;;;22.67;17.57;;;;;;;-1.38;100.00;96090.00;5054637;28;20477;-81
2022/12/11 03:56:11;;;;;;;18.30;15.33;;;;;;;-1.26;100.00;96090.41;5055282;28;20178;-80
2022/12/11 03:58:37;;;;;;;17.43;14.90;;;;;;;-1.44;100.00;96095.81;5066675;28;20186;-80
2022/12/11 04:01:03;;;;;;;22.50;17.33;;;;;;;-1.48;100.00;96088.63;5076675;28;20185;-80
2022/12/11 04:03:28;;;;;;;21.37;17.00;;;;;;;-1.37;100.00;96080.53;5056694;28;20181;-80
2022/12/11 04:05:54;;;;;;;20.93;16.20;;;;;;;-1.30;100.00;96077.13;5050981;28;20178;-81
2022/12/11 04:08:21;;;;;;;21.87;16.60;;;;;;;-1.41;100.00;96080.06;5054364;28;20190;-81
2022/12/11 04:11:33;;;;;;;19.77;16.23;;;;;;;-1.45;100.00;96071.09;5054467;28;20186;-80
2022/12/11 04:13:33;;;;;;;20.30;16.23;;;;;;;-1.48;100.00;96075.78;5064432;28;20239;-81
2022/12/11 04:15:58;;;;;;;21.83;16.97;;;;;;;-1.62;100.00;96072.16;5073673;28;20189;-82
2022/12/11 04:26:35;;;;;;;20.40;16.87;;;;;;;-1.64;100.00;96063.03;5073716;28;20609;-80
2022/12/11 04:29:01;;;;;;;18.23;15.37;;;;;;;-1.61;100.00;96065.22;5072121;28;20189;-80
2022/12/11 04:31:27;;;;;;;23.07;16.50;;;;;;;-1.44;100.00;96062.41;5057485;28;20652;-80
2022/12/11 04:33:52;;;;;;;19.87;15.70;;;;;;;-1.51;100.00;96061.50;5071321;28;20169;-80
2022/12/11 04:36:17;;;;;;;18.87;15.07;;;;;;;-1.61;100.00;96057.53;5073439;28;20196;-80
2022/12/11 04:38:43;;;;;;;19.97;16.10;;;;;;;-1.60;100.00;96051.44;5072714;28;20648;-80
2022/12/11 04:41:12;;;;;;;17.13;14.37;;;;;;;-1.61;100.00;96049.81;5073593;28;20626;-79
2022/12/11 04:43:37;;;;;;;20.20;14.70;;;;;;;-1.64;100.00;96045.03;5054233;28;20192;-80
2022/12/11 04:46:08;;;;;;;18.67;15.27;;;;;;;-1.57;100.00;96046.78;5072575;28;20650;-80
2022/12/11 04:48:34;;;;;;;20.27;15.57;;;;;;;-1.67;100.00;96049.53;5054531;28;20627;-80
2022/12/11 04:51:00;;;;;;;17.43;14.87;;;;;;;-1.42;100.00;96041.69;5073694;28;20200;-80
2022/12/11 04:53:25;;;;;;;17.80;13.97;;;;;;;-1.55;100.00;96038.88;5064399;28;20593;-79
2022/12/11 04:55:51;;;;;;;18.53;14.77;;;;;;;-1.52;100.00;96043.69;5053718;28;20669;-80
2022/12/11 04:58:16;;;;;;;18.07;14.33;;;;;;;-1.63;100.00;96039.75;5057193;28;20228;-80
2022/12/11 05:00:42;;;;;;;16.43;14.17;;;;;;;-1.80;100.00;96039.03;5067510;28;20209;-79
2022/12/11 05:03:08;;;;;;;18.13;14.67;;;;;;;-1.90;100.00;96035.88;5065055;28;20229;-79
2022/12/11 05:05:33;;;;;;;20.50;16.00;;;;;;;-1.69;100.00;96025.81;5073204;28;20633;-79
2022/12/11 05:07:59;;;;;;;19.10;14.60;;;;;;;-1.61;100.00;96026.69;5073143;28;20625;-80
2022/12/11 05:10:24;;;;;;;20.93;16.13;;;;;;;-1.71;100.00;96021.78;5069510;28;20208;-80
2022/12/11 05:12:49;;;;;;;19.13;15.27;;;;;;;-1.87;100.00;96024.44;5035403;28;20185;-80
2022/12/11 05:15:15;;;;;;;18.53;15.03;;;;;;;-1.75;100.00;96036.75;5053383;28;20216;-80
2022/12/11 05:17:40;;;;;;;18.70;15.23;;;;;;;-1.78;100.00;96036.25;5066952;28;20712;-79
2022/12/11 05:20:06;;;;;;;19.73;15.77;;;;;;;-1.85;100.00;96040.50;5039891;28;20220;-80
2022/12/11 05:22:31;;;;;;;20.43;15.93;;;;;;;-1.69;100.00;96036.06;5055799;28;20209;-80
2022/12/11 05:24:57;;;;;;;19.97;16.00;;;;;;;-1.74;100.00;96048.63;5035318;28;20190;-80
2022/12/11 05:27:22;;;;;;;21.10;16.43;;;;;;;-1.78;100.00;96051.69;5052951;28;20190;-80
2022/12/11 05:29:48;;;;;;;19.60;16.37;;;;;;;-1.79;100.00;96048.34;5048439;28;20190;-80
2022/12/11 05:32:13;;;;;;;22.73;16.40;;;;;;;-1.80;100.00;96049.28;5072332;28;20220;-80
2022/12/11 05:34:38;;;;;;;18.47;15.10;;;;;;;-1.94;100.00;96037.16;5072703;28;20209;-80
2022/12/11 05:37:04;;;;;;;19.90;16.60;;;;;;;-1.86;100.00;96044.03;5072206;28;20184;-80
2022/12/11 05:39:29;;;;;;;21.13;16.57;;;;;;;-1.97;100.00;96031.56;5063672;28;20212;-80
2022/12/11 05:41:55;;;;;;;20.60;16.17;;;;;;;-2.00;100.00;96024.19;5072264;28;20198;-80
2022/12/11 05:44:20;;;;;;;21.37;15.80;;;;;;;-2.22;100.00;96026.50;5053352;28;20691;-80
2022/12/11 05:46:46;;;;;;;21.17;15.43;;;;;;;-2.28;100.00;96019.47;5042877;28;20697;-80
2022/12/11 05:49:11;;;;;;;20.93;15.73;;;;;;;-2.24;100.00;96012.25;5054415;28;20260;-80
2022/12/11 05:51:38;;;;;;;21.43;16.27;;;;;;;-2.36;100.00;96018.72;5054444;28;20553;-80
2022/12/11 05:54:04;;;;;;;22.90;16.63;;;;;;;-2.45;100.00;96017.16;5035138;28;20200;-80
2022/12/11 05:56:31;;;;;;;21.63;16.03;;;;;;;-2.55;100.00;96013.00;5054104;28;20541;-80
2022/12/11 05:58:58;;;;;;;22.40;16.47;;;;;;;-2.39;100.00;96017.28;5044466;28;20186;-80
2022/12/11 06:01:38;;;;;;;21.70;17.03;;;;;;;-2.46;100.00;96012.97;5070408;28;20182;-80
2022/12/11 06:04:05;;;;;;;19.07;14.83;;;;;;;-2.58;100.00;96023.59;5057706;28;20169;-79
2022/12/11 06:06:32;;;;;;;21.20;16.50;;;;;;;-2.76;100.00;96035.00;5064426;28;20186;-80
2022/12/11 06:08:58;;;;;;;21.00;15.30;;;;;;;-2.68;100.00;96032.44;5053028;28;20186;-79
2022/12/11 06:11:27;;;;;;;19.37;14.67;;;;;;;-2.67;100.00;96039.13;5052990;28;20178;-80
2022/12/11 06:13:52;;;;;;;19.70;15.67;;;;;;;-2.64;100.00;96037.06;5052814;28;20264;-79
2022/12/11 06:16:18;;;;;;;19.10;14.80;;;;;;;-2.56;100.00;96033.66;5036079;28;20642;-79
2022/12/11 06:18:44;;;;;;;19.97;15.13;;;;;;;-2.62;100.00;96040.25;5052829;28;20232;-79
2022/12/11 06:21:24;;;;;;;22.17;16.40;;;;;;;-2.57;100.00;96027.75;5052471;28;20186;-80
2022/12/11 06:23:52;;;;;;;23.63;16.63;;;;;;;-2.62;100.00;96024.88;5056198;28;20256;-79
2022/12/11 06:26:18;;;;;;;20.27;16.30;;;;;;;-2.68;100.00;96032.44;5062426;28;20186;-79
2022/12/11 06:28:44;;;;;;;19.43;15.00;;;;;;;-2.50;100.00;96027.88;5052744;28;20575;-79
2022/12/11 06:31:10;;;;;;;21.57;15.73;;;;;;;-2.50;100.00;96027.88;5052974;28;20248;-79
2022/12/11 06:33:35;;;;;;;20.23;15.23;;;;;;;-2.60;100.00;96020.38;5053589;28;20197;-84
2022/12/11 06:36:10;;;;;;;19.67;15.40;;;;;;;-2.72;100.00;96018.31;5053857;28;20543;-81
2022/12/11 06:38:36;;;;;;;21.27;14.93;;;;;;;-2.79;100.00;96025.06;5062037;28;20544;-82
2022/12/11 06:41:06;;;;;;;20.30;14.80;;;;;;;-2.83;100.00;96010.97;5071059;28;20185;-81
2022/12/11 06:43:32;;;;;;;21.30;15.83;;;;;;;-2.89;100.00;96019.31;5050883;28;20189;-81
2022/12/11 06:45:58;;;;;;;20.80;16.17;;;;;;;-2.90;100.00;96004.91;5071079;28;20185;-81
2022/12/11 06:48:24;;;;;;;19.63;14.97;;;;;;;-2.94;100.00;96017.22;5046362;28;20236;-81
2022/12/11 06:50:49;;;;;;;22.53;15.67;;;;;;;-3.01;100.00;96018.84;5052147;28;20192;-80
2022/12/11 06:53:15;;;;;;;22.83;15.67;;;;;;;-3.05;100.00;96020.91;5061823;28;20277;-81
2022/12/11 06:55:41;;;;;;;19.93;15.70;;;;;;;-2.97;100.00;96020.13;5075650;28;20638;-81
2022/12/11 06:58:07;;;;;;;21.80;16.43;;;;;;;-2.92;100.00;96029.88;5071713;28;20225;-81
2022/12/11 07:00:35;;;;;;;20.13;16.80;;;;;;;-2.85;100.00;96026.53;5037942;28;20597;-81
2022/12/11 07:03:00;;;;;;;22.47;16.43;;;;;;;-2.85;100.00;96029.09;5056037;28;20209;-81
2022/12/11 07:05:26;;;;;;;22.43;17.33;;;;;;;-2.77;100.00;96035.94;5056295;28;20182;-81
2022/12/11 07:07:54;;;;;;;23.07;16.57;;;;;;;-2.67;100.00;96032.25;5057059;28;20257;-80
2022/12/11 07:10:20;;;;;;;20.83;16.53;;;;;;;-2.58;100.00;96036.41;5057269;28;20234;-81
2022/12/11 07:12:45;;;;;;;22.10;17.37;;;;;;;-2.58;100.00;96038.19;5040179;28;21026;-81
2022/12/11 07:15:11;;;;;;;24.30;17.27;;;;;;;-2.55;100.00;96040.41;5055704;28;20270;-80
2022/12/11 07:17:36;;;;;;;23.60;17.30;;;;;;;-2.41;100.00;96021.78;5068490;28;20261;-80
2022/12/11 07:20:03;;;;;;;22.07;16.70;;;;;;;-2.23;100.00;96027.47;5074607;28;20212;-80
2022/12/11 07:22:28;;;;;;;20.77;16.57;;;;;;;-2.28;100.00;96032.31;5056946;28;20197;-80
2022/12/11 07:24:53;;;;;;;20.60;15.33;;;;;;;-2.25;100.00;96034.56;5074392;28;20246;-80
2022/12/11 07:27:19;;;;;;;22.30;16.53;;;;;;;-2.22;100.00;96034.22;5041316;28;20192;-80
2022/12/11 07:29:44;;;;;;;21.23;16.23;;;;;;;-2.17;100.00;96034.50;5057107;28;20191;-80
2022/12/11 07:32:09;;;;;;;19.13;15.13;;;;;;;-2.22;100.00;96035.97;5074590;28;20285;-80
2022/12/11 07:34:35;;;;;;;20.80;16.53;;;;;;;-2.06;100.00;96046.19;5075231;28;20220;-80
2022/12/11 07:37:00;;;;;;;19.77;15.70;;;;;;;-1.84;100.00;96042.09;5078736;28;20213;-81
2022/12/11 07:39:26;;;;;;;21.97;15.77;;;;;;;-1.84;100.00;96047.25;5051056;28;20220;-80
2022/12/11 07:41:52;;;;;;;20.53;15.57;;;;;;;-1.67;100.00;96053.88;5039112;28;20214;-81
2022/12/11 07:44:17;;;;;;;21.83;16.03;;;;;;;-1.86;100.00;96049.16;5068119;28;20181;-81
2022/12/11 07:46:43;;;;;;;19.33;15.70;;;;;;;-1.71;100.00;96061.13;5075226;28;20657;-81
2022/12/11 07:49:08;;;;;;;22.40;17.30;;;;;;;-1.63;100.00;96052.59;5058796;28;20202;-84
2022/12/11 07:51:36;;;;;;;21.43;17.73;;;;;;;-1.77;100.00;96048.16;5061824;28;20264;-74
2022/12/11 07:54:05;;;;;;;20.23;15.40;;;;;;;-2.32;100.00;96049.00;5074606;28;20186;-76
2022/12/11 07:56:31;;;;;;;20.50;15.27;;;;;;;-1.95;100.00;96045.03;5073382;28;20511;-78
2022/12/11 07:58:59;;;;;;;19.90;15.53;;;;;;;-1.92;100.00;96049.84;5055333;28;20190;-77
2022/12/11 08:01:27;;;;;;;20.50;15.90;;;;;;;-1.82;100.00;96040.94;5066087;28;20181;-81
2022/12/11 08:03:53;;;;;;;20.67;16.70;;;;;;;-1.63;100.00;96042.31;5065335;28;20772;-81
2022/12/11 08:06:25;;;;;;;21.43;17.13;;;;;;;-1.55;100.00;96034.53;5038409;28;20214;-81
2022/12/11 08:08:50;;;;;;;26.43;16.33;;;;;;;-1.55;100.00;96037.09;5057627;28;20201;-82
2022/12/11 08:11:15;;;;;;;24.00;16.87;;;;;;;-1.30;100.00;96037.75;5054114;28;20201;-81
2022/12/11 08:13:42;;;;;;;23.33;17.30;;;;;;;-1.38;100.00;96038.59;5058403;28;20236;-82
2022/12/11 08:16:10;;;;;;;25.83;21.77;;;;;;;-1.37;100.00;96040.22;5036182;28;20182;-81
2022/12/11 08:18:36;;;;;;;24.17;19.80;;;;;;;-1.64;100.00;96042.47;5054202;28;20265;-82
2022/12/11 08:21:10;;;;;;;22.03;18.83;;;;;;;-1.56;100.00;96043.22;5053985;28;20174;-81
2022/12/11 08:23:35;;;;;;;23.13;20.63;;;;;;;-1.18;100.00;96043.31;5060736;28;20216;-81
2022/12/11 08:26:03;;;;;;;18.43;15.37;;;;;;;-1.17;100.00;96042.34;5073716;28;20185;-81
2022/12/11 08:28:29;;;;;;;22.23;15.73;;;;;;;-1.57;100.00;96039.06;5074151;28;20268;-82
2022/12/11 08:30:54;;;;;;;20.20;15.13;;;;;;;-1.76;100.00;96052.31;5073827;28;20182;-83
2022/12/11 08:33:20;;;;;;;20.53;14.63;;;;;;;-1.56;100.00;96040.63;5067867;28;20199;-85
2022/12/11 08:35:46;;;;;;;17.47;13.73;;;;;;;-1.42;100.00;96045.06;5078330;28;20185;-85
2022/12/11 08:38:11;;;;;;;18.60;14.27;;;;;;;-0.86;100.00;96040.47;5069831;28;20193;-82
2022/12/11 08:40:36;;;;;;;17.43;14.23;;;;;;;-1.35;100.00;96046.00;5037986;28;20606;-86
2022/12/11 08:43:02;;;;;;;17.43;15.17;;;;;;;-0.73;100.00;96047.59;5057060;28;20229;-85
2022/12/11 08:45:27;;;;;;;22.87;17.40;;;;;;;-1.02;100.00;96048.31;5069026;28;20189;-86
2022/12/11 08:47:53;;;;;;;21.87;19.50;;;;;;;-0.97;100.00;96054.53;5056389;28;20304;-85
2022/12/11 08:50:18;;;;;;;22.73;19.50;;;;;;;-0.76;100.00;96048.75;5076727;28;20181;-84
2022/12/11 08:52:44;;;;;;;22.53;20.20;;;;;;;-0.59;100.00;96041.66;5072863;28;20185;-86
2022/12/11 08:55:09;;;;;;;23.80;21.33;;;;;;;-1.08;100.00;96046.44;5073809;28;20229;-83
2022/12/11 08:57:38;;;;;;;23.03;20.63;;;;;;;-0.73;100.00;96043.25;5074291;28;20197;-83
2022/12/11 09:00:05;;;;;;;21.40;18.10;;;;;;;-1.14;100.00;96044.56;5060694;28;20188;-82
2022/12/11 09:02:30;;;;;;;21.93;17.20;;;;;;;-1.17;100.00;96044.91;5062078;28;20572;-84
2022/12/11 09:04:56;;;;;;;22.80;16.67;;;;;;;-1.11;100.00;96046.75;5074608;28;20268;-83
2022/12/11 09:07:21;;;;;;;22.43;16.40;;;;;;;-1.16;100.00;96046.47;5042469;28;20189;-81
2022/12/11 09:09:46;;;;;;;21.00;16.13;;;;;;;-1.17;100.00;96047.47;5059497;28;20190;-81
2022/12/11 09:12:12;;;;;;;23.33;18.73;;;;;;;-1.26;100.00;96044.16;5040611;28;20218;-81
2022/12/11 09:14:38;;;;;;;21.67;17.13;;;;;;;-1.06;100.00;96039.38;5073798;28;20202;-82
2022/12/11 09:17:04;;;;;;;22.50;18.83;;;;;;;-0.60;100.00;96045.22;5052758;28;20185;-82
2022/12/11 09:19:29;;;;;;;21.27;16.37;;;;;;;-0.71;100.00;96038.72;5049995;28;20189;-83
2022/12/11 09:21:55;;;;;;;21.83;17.20;;;;;;;-0.43;100.00;96037.16;5064540;28;20287;-83
2022/12/11 09:24:21;;;;;;;21.43;16.37;;;;;;;-0.69;100.00;96030.84;5053912;28;20212;-81
2022/12/11 09:26:46;;;;;;;21.53;16.50;;;;;;;-0.57;100.00;96030.25;5057864;28;20197;-81
2022/12/11 09:29:11;;;;;;;22.53;16.70;;;;;;;-0.53;100.00;96040.97;5056325;28;20193;-81
2022/12/11 09:31:37;;;;;;;20.10;16.53;;;;;;;-0.56;100.00;96039.53;5051979;28;20270;-82
2022/12/11 09:34:06;;;;;;;21.27;16.23;;;;;;;-0.36;100.00;96026.16;5065607;28;20185;-82
2022/12/11 09:36:31;;;;;;;20.37;16.73;;;;;;;-0.57;100.00;96026.88;5074466;28;20219;-84
2022/12/11 09:39:06;;;;;;;22.80;17.27;;;;;;;-0.61;100.00;96026.41;5080569;28;20260;-84
2022/12/11 09:42:00;;;;;;;20.70;16.43;;;;;;;-0.77;100.00;96030.91;5080652;28;20169;-82
2022/12/11 09:44:46;;;;;;;23.67;17.70;;;;;;;-0.63;100.00;96027.56;5060065;28;20216;-84
2022/12/11 09:47:42;;;;;;;21.03;18.17;;;;;;;-0.50;100.00;96028.53;5060906;28;20228;-82
2022/12/11 09:50:26;;;;;;;20.50;17.90;;;;;;;-0.76;100.00;96022.22;5031355;28;20217;-82
2022/12/11 09:53:08;;;;;;;20.93;16.93;;;;;;;-0.67;100.00;96023.75;5057854;28;20173;-85
2022/12/11 09:55:59;;;;;;;22.50;17.83;;;;;;;-0.61;100.00;96016.09;5040473;28;20187;-80
2022/12/11 09:58:27;;;;;;;22.73;15.67;;;;;;;-0.74;100.00;96020.28;5055999;28;20204;-80
2022/12/11 10:01:08;;;;;;;18.77;16.57;;;;;;;-0.64;100.00;96015.66;5054706;28;20235;-81
2022/12/11 10:04:01;;;;;;;23.93;17.73;;;;;;;-0.53;100.00;96017.81;5055071;28;20210;-79
2022/12/11 10:06:45;;;;;;;25.30;20.50;;;;;;;0.00;100.00;96017.53;5040473;28;20192;-78
2022/12/11 10:09:23;;;;;;;26.60;18.80;;;;;;;-0.12;100.00;96023.31;5060237;28;20177;-78
2022/12/11 10:11:54;;;;;;;21.77;17.80;;;;;;;-0.23;100.00;96011.69;5053899;28;20264;-78
2022/12/11 10:14:34;;;;;;;22.43;19.00;;;;;;;0.02;100.00;96021.69;5054313;28;20181;-79
2022/12/11 10:17:11;;;;;;;25.53;21.20;;;;;;;-0.30;100.00;96012.59;5071732;28;20323;-77
2022/12/11 10:19:38;;;;;;;23.43;17.20;;;;;;;-0.09;100.00;96010.06;5056089;28;20273;-77
2022/12/11 10:22:11;;;;;;;27.03;19.93;;;;;;;-0.35;100.00;96002.03;5055253;28;20205;-78
2022/12/11 10:25:02;;;;;;;22.53;18.17;;;;;;;-0.10;100.00;96000.75;5072909;28;20184;-78
2022/12/11 10:27:33;;;;;;;23.33;17.30;;;;;;;0.00;100.00;95996.91;5075819;28;20200;-79
2022/12/11 10:30:01;;;;;;;22.90;18.00;;;;;;;-0.04;100.00;95995.69;5070571;28;20673;-79
2022/12/11 10:32:52;;;;;;;25.07;19.30;;;;;;;-0.12;100.00;95997.56;5055318;28;20182;-79
2022/12/11 10:35:32;;;;;;;23.70;18.97;;;;;;;-0.24;100.00;95986.94;5056152;28;20189;-82
2022/12/11 10:38:10;;;;;;;21.70;16.37;;;;;;;0.05;100.00;95986.09;5072646;28;20272;-79
2022/12/11 10:40:38;;;;;;;22.80;16.47;;;;;;;-0.18;100.00;95981.06;5047736;28;20246;-78
2022/12/11 10:43:04;;;;;;;22.63;18.10;;;;;;;0.06;100.00;95979.16;5063275;28;20219;-75
2022/12/11 10:45:29;;;;;;;22.53;16.57;;;;;;;-0.04;100.00;95980.22;5075679;28;20623;-75
2022/12/11 10:48:03;;;;;;;25.07;18.93;;;;;;;-0.09;100.00;95976.59;5072130;28;20239;-75
2022/12/11 10:50:28;;;;;;;23.60;19.03;;;;;;;0.06;100.00;95979.94;5071430;28;20370;-79
2022/12/11 10:52:54;;;;;;;21.47;17.20;;;;;;;-0.07;100.00;95975.47;5065166;28;20281;-78
2022/12/11 10:55:43;;;;;;;23.10;19.33;;;;;;;-0.10;100.00;95969.84;5074181;28;20181;-77
2022/12/11 10:58:19;;;;;;;24.93;18.20;;;;;;;-0.05;100.00;95970.09;5071283;28;20194;-79
2022/12/11 11:00:45;;;;;;;23.07;17.17;;;;;;;-0.02;100.00;95967.97;5064706;28;20652;-77
2022/12/11 11:03:22;;;;;;;21.20;18.10;;;;;;;0.12;100.00;95966.34;5057289;28;20211;-77
2022/12/11 11:05:49;;;;;;;19.13;15.17;;;;;;;0.18;100.00;95963.03;5073102;28;20275;-78
2022/12/11 11:08:23;;;;;;;21.17;17.20;;;;;;;0.03;100.00;95970.00;5061608;28;20186;-78
2022/12/11 11:11:00;;;;;;;20.70;16.97;;;;;;;-0.29;100.00;95953.19;5065339;28;20169;-78
2022/12/11 11:13:30;;;;;;;23.87;15.30;;;;;;;-0.08;100.00;95962.75;5056086;28;20186;-76
2022/12/11 11:16:02;;;;;;;19.90;16.23;;;;;;;0.47;100.00;95951.84;5072778;28;20196;-82
2022/12/11 11:18:30;;;;;;;19.30;15.37;;;;;;;0.45;99.09;95955.59;5077959;28;20196;-78
2022/12/11 11:20:55;;;;;;;19.30;15.67;;;;;;;0.34;100.00;95951.69;5074458;28;20190;-77
2022/12/11 11:23:22;;;;;;;20.70;17.60;;;;;;;0.50;98.69;95946.31;5074658;28;20205;-77
2022/12/11 11:25:55;;;;;;;22.53;17.50;;;;;;;0.57;98.11;95954.91;5061684;28;20177;-77